Time;durP1;ratioP1;P1;durP2;ratioP2;P2;SDS_P1;SDS_P2;PMS_P1;PMS_P2;Temp;Humidity;BMP_temperature;BMP_pressure;BME280_temperature;BME280_humidity;BME280_pressure;Samples;Min_cycle;Max_cycle;Signal;HPM_P1;HPM_P2
2022/10/23 00:01:52;;;;;;;29.87;14.30;;;;;;;5.29;79.56;102163.81;1872225;75;21137;-52
2022/10/23 00:04:25;;;;;;;23.98;12.60;;;;;;;5.27;79.59;102157.27;1870120;75;21115;-51
2022/10/23 00:06:53;;;;;;;26.57;13.63;;;;;;;5.24;79.40;102153.36;1915080;72;21512;-52
2022/10/23 00:09:24;;;;;;;26.60;13.88;;;;;;;5.23;79.55;102148.98;1933381;74;21535;-53
2022/10/23 00:11:53;;;;;;;31.40;17.20;;;;;;;5.21;79.40;102146.80;1907978;74;21071;-52
2022/10/23 00:14:24;;;;;;;29.72;15.65;;;;;;;5.19;79.36;102155.06;1868237;75;21059;-53
2022/10/23 00:16:53;;;;;;;27.20;13.95;;;;;;;5.09;79.95;102150.62;1868245;75;21574;-56
2022/10/23 00:19:22;;;;;;;25.37;14.38;;;;;;;5.02;79.98;102147.98;1886652;75;21059;-48
2022/10/23 00:21:51;;;;;;;25.88;15.90;;;;;;;4.96;80.25;102138.83;1897707;75;21188;-49
2022/10/23 00:24:19;;;;;;;27.05;16.23;;;;;;;4.90;80.58;102142.67;1895190;74;21161;-48
2022/10/23 00:26:50;;;;;;;30.20;17.27;;;;;;;4.83;80.91;102142.19;1869825;75;21043;-55
2022/10/23 00:29:19;;;;;;;28.07;14.33;;;;;;;4.83;80.76;102134.36;1894087;75;21069;-55
2022/10/23 00:31:47;;;;;;;20.15;10.10;;;;;;;4.81;80.48;102138.29;1906987;74;21057;-56
2022/10/23 00:34:18;;;;;;;31.23;16.37;;;;;;;4.78;80.35;102133.48;1914930;73;21102;-53
2022/10/23 00:36:47;;;;;;;36.10;16.50;;;;;;;4.73;80.70;102137.34;1896278;75;21034;-56
2022/10/23 00:39:15;;;;;;;31.70;15.85;;;;;;;4.67;80.99;102132.49;1906095;74;20994;-57
2022/10/23 00:41:44;;;;;;;31.82;17.48;;;;;;;4.66;80.89;102134.68;1933501;74;21029;-57
2022/10/23 00:44:22;;;;;;;31.70;17.35;;;;;;;4.61;81.20;102122.48;1925081;74;21090;-52
2022/10/23 00:46:51;;;;;;;27.35;14.80;;;;;;;4.62;80.98;102116.38;1929339;74;21093;-55
2022/10/23 00:49:21;;;;;;;25.95;14.47;;;;;;;4.60;81.19;102118.11;1902616;74;21050;-55
2022/10/23 00:51:59;;;;;;;22.80;11.93;;;;;;;4.59;81.17;102112.88;1883412;74;21125;-56
2022/10/23 00:54:30;;;;;;;31.65;15.95;;;;;;;4.59;81.11;102113.77;1899920;74;21030;-56
2022/10/23 00:57:02;;;;;;;31.65;15.55;;;;;;;4.57;81.31;102108.94;1900458;75;21020;-55
2022/10/23 00:59:32;;;;;;;25.62;14.23;;;;;;;4.55;81.53;102105.45;1910050;74;21042;-55
2022/10/23 01:02:01;;;;;;;18.23;10.45;;;;;;;4.56;81.50;102105.91;1915706;74;21574;-55
2022/10/23 01:04:30;;;;;;;24.43;13.62;;;;;;;4.61;81.04;102099.00;1899776;75;21136;-55
2022/10/23 01:07:21;;;;;;;23.25;12.85;;;;;;;4.64;80.84;102099.00;1930260;74;21503;-53
2022/10/23 01:10:16;;;;;;;25.35;14.60;;;;;;;4.62;80.93;102093.34;1903620;74;21458;-58
2022/10/23 01:12:54;;;;;;;18.23;10.35;;;;;;;4.59;80.84;102090.70;1885733;74;21041;-60
2022/10/23 01:15:32;;;;;;;20.97;11.33;;;;;;;4.62;80.62;102096.81;1894116;73;21062;-60
2022/10/23 01:18:18;;;;;;;18.95;11.78;;;;;;;4.62;80.72;102094.64;1900356;75;21059;-62
2022/10/23 01:20:58;;;;;;;25.75;12.10;;;;;;;4.58;80.82;102092.88;1900423;74;21051;-61
2022/10/23 01:23:35;;;;;;;23.62;11.73;;;;;;;4.52;81.06;102101.54;1900614;74;21125;-62
2022/10/23 01:26:25;;;;;;;22.15;11.65;;;;;;;4.52;81.13;102097.63;1900224;75;21044;-60
2022/10/23 01:28:59;;;;;;;19.87;10.88;;;;;;;4.53;81.13;102102.40;1899206;74;21253;-60
2022/10/23 01:31:37;;;;;;;19.95;11.20;;;;;;;4.52;81.14;102096.32;1876034;74;21588;-59
2022/10/23 01:34:18;;;;;;;20.00;10.88;;;;;;;4.53;81.17;102092.83;1866888;75;21165;-62
2022/10/23 01:36:50;;;;;;;20.37;10.23;;;;;;;4.51;81.16;102089.34;1865112;77;21460;-60
2022/10/23 01:39:24;;;;;;;18.95;10.05;;;;;;;4.53;81.02;102087.61;1886993;75;21153;-59
2022/10/23 01:42:01;;;;;;;21.50;11.33;;;;;;;4.56;80.93;102088.95;1894604;75;21039;-52
2022/10/23 01:44:37;;;;;;;15.95;8.78;;;;;;;4.57;81.04;102094.59;1903888;74;21228;-55
2022/10/23 01:47:09;;;;;;;19.00;8.55;;;;;;;4.57;81.02;102085.47;1893186;74;21486;-55
2022/10/23 01:49:42;;;;;;;16.00;8.25;;;;;;;4.61;81.06;102083.75;1902893;74;21124;-56
2022/10/23 01:52:13;;;;;;;16.62;7.03;;;;;;;4.64;80.90;102085.09;1900628;75;21022;-52
2022/10/23 01:54:47;;;;;;;18.05;7.15;;;;;;;4.68;80.75;102083.38;1899523;75;21090;-54
2022/10/23 01:57:18;;;;;;;19.67;7.47;;;;;;;4.67;80.62;102079.00;1899663;74;21112;-56
2022/10/23 01:59:53;;;;;;;11.30;6.30;;;;;;;4.68;80.51;102078.16;1912880;74;21048;-56
2022/10/23 02:02:24;;;;;;;11.08;6.22;;;;;;;4.69;80.45;102073.40;1933565;73;21461;-53
2022/10/23 02:05:08;;;;;;;12.18;6.47;;;;;;;4.64;80.47;102072.91;1933598;74;21063;-52
2022/10/23 02:07:38;;;;;;;14.00;6.50;;;;;;;4.69;80.28;102068.18;1933386;74;21131;-55
2022/10/23 02:10:09;;;;;;;15.55;6.40;;;;;;;4.77;80.10;102057.34;1912604;74;21130;-59
2022/10/23 02:12:44;;;;;;;11.15;6.47;;;;;;;4.84;79.89;102055.22;1868083;77;21171;-58
2022/10/23 02:15:21;;;;;;;12.25;6.70;;;;;;;4.90;79.85;102063.51;1868007;77;21098;-61
2022/10/23 02:17:53;;;;;;;16.30;7.30;;;;;;;4.94;79.87;102065.27;1869818;75;21102;-61
2022/10/23 02:20:33;;;;;;;14.93;7.53;;;;;;;5.01;79.69;102058.78;1870026;75;21126;-59
2022/10/23 02:23:17;;;;;;;13.68;6.53;;;;;;;5.09;79.41;102062.75;1886775;74;21082;-59
2022/10/23 02:25:51;;;;;;;13.05;6.60;;;;;;;5.15;79.15;102056.69;1877169;75;21051;-57
2022/10/23 02:28:24;;;;;;;9.98;5.80;;;;;;;5.19;79.01;102066.27;1893093;74;21595;-57
2022/10/23 02:30:57;;;;;;;10.40;6.25;;;;;;;5.21;79.02;102061.48;1897845;75;21107;-55
2022/10/23 02:33:28;;;;;;;12.93;6.30;;;;;;;5.20;79.06;102058.45;1899702;75;21104;-59
2022/10/23 02:35:57;;;;;;;12.90;5.12;;;;;;;5.25;79.04;102055.84;1897800;75;21070;-61
2022/10/23 02:38:39;;;;;;;10.68;5.80;;;;;;;5.30;78.92;102061.97;1905102;75;21054;-60
2022/10/23 02:41:19;;;;;;;13.88;6.65;;;;;;;5.32;78.87;102065.45;1904870;75;21030;-60
2022/10/23 02:44:06;;;;;;;10.82;5.97;;;;;;;5.31;78.79;102058.50;1904879;75;21046;-60
2022/10/23 02:46:44;;;;;;;10.18;5.03;;;;;;;5.32;78.82;102062.84;1900020;75;21521;-59
2022/10/23 02:49:28;;;;;;;8.98;5.37;;;;;;;5.33;78.76;102050.64;1867774;77;21586;-59
2022/10/23 02:52:15;;;;;;;11.38;5.67;;;;;;;5.39;78.68;102050.69;1834218;77;21525;-61
2022/10/23 02:54:52;;;;;;;12.85;6.22;;;;;;;5.47;78.51;102045.48;1868066;77;21481;-62
2022/10/23 02:57:24;;;;;;;10.95;5.78;;;;;;;5.50;78.43;102048.12;1869667;75;21201;-60
2022/10/23 03:00:01;;;;;;;9.35;5.15;;;;;;;5.50;78.43;102042.89;1866568;75;21099;-61
2022/10/23 03:02:42;;;;;;;15.68;5.28;;;;;;;5.53;78.36;102042.88;1868125;75;21545;-62
2022/10/23 03:05:15;;;;;;;11.35;5.95;;;;;;;5.54;78.37;102034.19;1867998;77;21126;-60
2022/10/23 03:07:44;;;;;;;9.98;5.45;;;;;;;5.58;78.26;102035.93;1869679;74;21138;-60
2022/10/23 03:10:13;;;;;;;15.40;6.33;;;;;;;5.61;78.20;102027.66;1899656;74;21052;-63
2022/10/23 03:12:42;;;;;;;8.98;4.83;;;;;;;5.65;78.16;102031.16;1905145;74;21489;-61
2022/10/23 03:15:12;;;;;;;9.33;5.70;;;;;;;5.69;78.05;102032.91;1890797;76;21513;-56
2022/10/23 03:17:41;;;;;;;13.13;5.17;;;;;;;5.68;78.11;102029.87;1894590;74;21502;-57
2022/10/23 03:20:11;;;;;;;8.48;4.62;;;;;;;5.68;78.11;102025.95;1924097;74;21034;-58
2022/10/23 03:22:40;;;;;;;9.30;5.08;;;;;;;5.72;78.15;102033.36;1924236;74;21022;-59
2022/10/23 03:25:09;;;;;;;8.25;5.40;;;;;;;5.76;78.02;102033.35;1924288;74;21116;-59
2022/10/23 03:27:38;;;;;;;11.45;5.55;;;;;;;5.81;77.86;102035.98;1895340;74;21040;-59
2022/10/23 03:30:09;;;;;;;9.75;5.65;;;;;;;5.84;77.88;102035.11;1895029;74;21029;-60
2022/10/23 03:32:38;;;;;;;11.97;6.35;;;;;;;5.83;77.83;102030.73;1924161;74;21026;-61
2022/10/23 03:35:08;;;;;;;17.05;9.30;;;;;;;5.79;77.96;102029.45;1907305;73;21031;-61
2022/10/23 03:37:36;;;;;;;15.70;10.20;;;;;;;5.80;78.04;102029.87;1888376;74;21164;-47
2022/10/23 03:40:06;;;;;;;17.30;11.18;;;;;;;5.84;77.94;102035.11;1908379;74;21824;-47
2022/10/23 03:42:35;;;;;;;20.92;13.83;;;;;;;5.88;77.77;102036.84;1888758;74;21038;-48
2022/10/23 03:45:05;;;;;;;20.35;13.85;;;;;;;5.90;77.68;102031.19;1890000;74;21050;-48
2022/10/23 03:47:34;;;;;;;24.67;14.35;;;;;;;5.90;77.61;102027.27;1895175;74;21064;-51
2022/10/23 03:50:03;;;;;;;20.85;10.05;;;;;;;5.88;77.68;102020.72;1889597;75;21061;-47
2022/10/23 03:52:33;;;;;;;21.35;10.60;;;;;;;5.87;77.82;102024.67;1889819;75;21086;-49
2022/10/23 03:55:02;;;;;;;22.93;13.38;;;;;;;5.84;78.09;102018.12;1886851;75;21051;-55
2022/10/23 03:57:32;;;;;;;13.70;7.53;;;;;;;5.79;78.28;102018.99;1891963;74;21105;-54
2022/10/23 04:00:01;;;;;;;16.07;9.93;;;;;;;5.77;78.67;102006.36;1890187;75;21498;-53
2022/10/23 04:02:31;;;;;;;18.20;10.68;;;;;;;5.71;78.88;102006.33;1893673;74;21212;-51
2022/10/23 04:05:00;;;;;;;21.20;9.50;;;;;;;5.68;79.11;102010.68;1894324;74;21068;-55
2022/10/23 04:07:29;;;;;;;17.07;9.60;;;;;;;5.70;79.15;102001.99;1883980;74;21084;-56
2022/10/23 04:10:00;;;;;;;14.43;8.58;;;;;;;5.75;79.01;102000.67;1888453;76;21119;-52
2022/10/23 04:12:29;;;;;;;18.60;7.37;;;;;;;5.76;78.93;101991.53;1892283;74;21124;-54
2022/10/23 04:14:57;;;;;;;12.40;7.45;;;;;;;5.79;78.89;101991.55;1886703;76;21073;-49
2022/10/23 04:17:26;;;;;;;13.55;7.00;;;;;;;5.86;78.80;101987.17;1894731;74;21038;-58
2022/10/23 04:19:55;;;;;;;12.78;5.97;;;;;;;5.97;78.60;101986.77;1887712;76;21124;-52
2022/10/23 04:22:24;;;;;;;10.43;5.40;;;;;;;6.10;78.34;101981.11;1886704;75;21108;-63
2022/10/23 04:24:53;;;;;;;10.45;4.67;;;;;;;6.22;78.07;101979.37;1877889;76;21064;-63
2022/10/23 04:27:22;;;;;;;10.30;4.60;;;;;;;6.30;77.82;101971.94;1859065;77;21059;-57
2022/10/23 04:29:53;;;;;;;11.95;5.20;;;;;;;6.35;77.72;101971.50;1859057;77;21051;-67
2022/10/23 04:32:22;;;;;;;10.03;5.40;;;;;;;6.43;77.62;101974.09;1862723;76;21240;-68
2022/10/23 04:34:51;;;;;;;10.50;5.03;;;;;;;6.50;77.40;101964.50;1859023;77;21067;-62
2022/10/23 04:37:19;;;;;;;13.43;6.42;;;;;;;6.54;77.21;101959.23;1859028;77;21087;-62
2022/10/23 04:39:48;;;;;;;8.13;4.30;;;;;;;6.61;77.02;101954.00;1859100;77;21556;-64
2022/10/23 04:42:17;;;;;;;10.10;5.05;;;;;;;6.69;76.89;101953.53;1859015;77;21201;-63
2022/10/23 04:44:46;;;;;;;11.45;5.10;;;;;;;6.75;76.91;101954.80;1887254;76;21079;-64
2022/10/23 04:54:22;;;;;;;11.55;5.45;;;;;;;7.06;76.48;101960.78;1884175;76;21094;-64
2022/10/23 04:57:25;;;;;;;9.95;3.12;;;;;;;7.21;76.38;101965.09;1881607;74;21119;-62
2022/10/23 05:03:34;;;;;;;12.80;5.45;;;;;;;7.54;76.11;101966.64;1796960;79;21080;-60
2022/10/23 05:06:46;;;;;;;;;;;;;;;;;;;;;
2022/10/23 05:09:03;;;;;;;11.38;5.22;;;;;;;7.82;75.66;101948.50;1853061;74;21052;-60
2022/10/23 05:11:57;;;;;;;7.78;5.33;;;;;;;7.91;75.44;101944.06;1929883;73;21071;-61
2022/10/23 05:14:35;;;;;;;11.15;4.87;;;;;;;8.01;75.26;101942.22;1930724;73;21036;-61
2022/10/23 05:17:16;;;;;;;9.20;5.58;;;;;;;8.08;75.15;101934.73;1919075;73;21647;-62
2022/10/23 05:19:51;;;;;;;15.13;6.62;;;;;;;8.15;74.96;101930.27;1923645;74;21172;-61
2022/10/23 05:22:34;;;;;;;14.33;7.37;;;;;;;8.18;74.87;101933.33;1900860;74;21091;-57
2022/10/23 05:27:52;;;;;;;11.35;4.78;;;;;;;8.24;74.97;101925.37;1860569;74;21055;-57
2022/10/23 05:30:22;;;;;;;10.20;4.55;;;;;;;8.30;74.81;101923.57;1901894;73;21166;-60
2022/10/23 05:32:51;;;;;;;10.18;4.53;;;;;;;8.42;74.60;101925.21;1940108;73;21066;-61
2022/10/23 05:35:23;;;;;;;13.20;6.33;;;;;;;8.57;74.43;101922.86;1925670;74;21018;-62
2022/10/23 05:37:55;;;;;;;14.55;6.67;;;;;;;9.09;74.89;101913.43;1933723;73;21018;-61
2022/10/23 05:40:26;;;;;;;9.65;5.05;;;;;;;9.89;74.65;101921.41;1939268;72;21218;-60
2022/10/23 05:42:58;;;;;;;;;;;;;;;10.66;74.65;101920.42;1931199;73;21095;-57
2022/10/23 05:45:45;;;;;;;7.62;2.65;;;;;;;10.94;74.14;101915.45;1889712;76;20120;-58
2022/10/23 05:48:22;;;;;;;7.10;2.08;;;;;;;10.91;73.69;101914.20;1902010;74;21139;-58
2022/10/23 05:51:10;;;;;;;6.05;2.25;;;;;;;10.90;73.41;101919.92;1887776;75;21075;-58
2022/10/23 05:53:47;;;;;;;4.40;1.40;;;;;;;11.02;73.29;101917.46;1840247;76;21106;-58
2022/10/23 05:56:23;;;;;;;2.90;1.80;;;;;;;11.42;73.19;101915.66;1830621;77;21448;-64
2022/10/23 05:58:56;;;;;;;8.45;1.75;;;;;;;12.03;73.00;101912.00;1829153;77;21059;-47
2022/10/23 06:01:33;;;;;;;2.62;1.55;;;;;;;12.82;72.67;101909.33;1823016;77;21161;-57
2022/10/23 06:04:04;;;;;;;2.95;1.65;;;;;;;13.73;72.04;101903.41;1846761;76;21066;-58
2022/10/23 06:06:37;;;;;;;4.47;2.33;;;;;;;14.14;71.02;101905.08;1856012;76;21104;-58
2022/10/23 06:09:06;;;;;;;5.83;2.65;;;;;;;14.62;70.25;101896.75;1853871;76;21162;-60
2022/10/23 06:11:37;;;;;;;3.90;2.62;;;;;;;14.91;69.75;101900.09;1858093;76;21102;-60
2022/10/23 06:14:07;;;;;;;6.58;2.25;;;;;;;15.10;69.07;101901.08;1855121;76;21212;-62
2022/10/23 06:16:37;;;;;;;5.40;2.00;;;;;;;15.27;68.66;101895.58;1854813;77;21046;-57
2022/10/23 06:19:07;;;;;;;4.70;2.10;;;;;;;15.01;68.46;101890.40;1854729;77;21074;-61
2022/10/23 06:21:37;;;;;;;4.83;3.25;;;;;;;14.60;67.94;101888.86;1857040;76;21035;-60
2022/10/23 06:24:11;;;;;;;8.38;5.00;;;;;;;14.20;67.71;101885.02;1873473;76;21104;-61
2022/10/23 06:26:44;;;;;;;11.38;6.35;;;;;;;13.90;67.55;101884.30;1835005;76;21172;-61
2022/10/23 06:29:21;;;;;;;13.03;8.30;;;;;;;13.63;67.72;101880.36;1856475;76;21022;-61
2022/10/23 06:31:50;;;;;;;13.18;7.87;;;;;;;13.50;67.78;101883.88;1866129;76;21006;-61
2022/10/23 06:34:19;;;;;;;20.08;9.80;;;;;;;13.40;67.84;101877.14;1851251;77;21109;-60
2022/10/23 06:36:49;;;;;;;26.65;10.13;;;;;;;13.37;67.98;101869.77;1854343;76;21156;-59
2022/10/23 06:39:39;;;;;;;29.15;11.83;;;;;;;13.36;68.06;101864.94;1825000;77;21114;-64
2022/10/23 06:42:09;;;;;;;42.35;12.50;;;;;;;13.41;68.05;101866.09;1822709;77;21124;-59
2022/10/23 06:44:40;;;;;;;36.28;10.53;;;;;;;13.50;68.06;101866.67;1820723;79;21649;-63
2022/10/23 06:47:12;;;;;;;44.65;12.03;;;;;;;13.59;67.94;101861.98;1824200;77;21166;-60
2022/10/23 06:49:59;;;;;;;6.30;3.15;;;;;;;13.68;67.67;101861.66;1817981;79;21202;-62
2022/10/23 06:52:30;;;;;;;8.85;3.80;;;;;;;13.80;67.48;101859.93;1823918;79;21053;-61
2022/10/23 06:54:59;;;;;;;13.20;4.78;;;;;;;13.90;67.45;101857.35;1825515;77;21062;-60
2022/10/23 06:57:29;;;;;;;6.17;3.30;;;;;;;14.01;67.30;101850.83;1800194;77;21089;-61
2022/10/23 06:59:57;;;;;;;9.68;4.08;;;;;;;14.13;67.17;101853.04;1815625;79;21040;-61
2022/10/23 07:02:27;;;;;;;8.70;3.17;;;;;;;14.19;67.10;101845.33;1815811;78;21123;-61
2022/10/23 07:04:56;;;;;;;8.35;3.12;;;;;;;14.32;67.06;101837.33;1815735;79;21096;-62
2022/10/23 07:07:25;;;;;;;10.35;2.70;;;;;;;14.45;66.89;101833.76;1828448;78;21119;-61
2022/10/23 07:09:54;;;;;;;8.13;2.42;;;;;;;14.59;66.59;101832.81;1854044;76;21652;-62
2022/10/23 07:12:25;;;;;;;7.90;2.85;;;;;;;14.73;66.23;101826.10;1876642;76;21080;-61
2022/10/23 07:14:58;;;;;;;13.55;3.72;;;;;;;14.80;66.17;101826.27;1873890;76;21094;-62
2022/10/23 07:17:29;;;;;;;20.92;6.92;;;;;;;14.85;66.16;101826.95;1865304;76;21092;-61
2022/10/23 07:19:59;;;;;;;20.27;8.13;;;;;;;14.92;66.14;101822.25;1844417;78;21159;-61
2022/10/23 07:22:29;;;;;;;11.70;4.03;;;;;;;14.99;66.21;101827.23;1844226;78;21567;-63
2022/10/23 07:25:11;;;;;;;16.52;5.05;;;;;;;15.01;66.26;101821.88;1843931;77;21115;-61
2022/10/23 07:27:40;;;;;;;11.10;4.12;;;;;;;15.01;66.17;101817.46;1843865;78;21025;-64
2022/10/23 07:30:30;;;;;;;12.85;4.47;;;;;;;15.10;66.12;101812.22;1845797;78;21096;-62
2022/10/23 07:33:00;;;;;;;15.13;5.25;;;;;;;15.19;66.10;101806.54;1913726;75;21137;-59
2022/10/23 07:35:46;;;;;;;17.30;4.95;;;;;;;15.27;66.14;101796.95;1950807;73;21054;-65
2022/10/23 07:38:24;;;;;;;14.95;3.70;;;;;;;15.38;66.17;101798.69;1984260;71;21102;-63
2022/10/23 07:40:51;;;;;;;6.42;2.70;;;;;;;15.43;65.51;101795.83;1965595;71;21102;-62
2022/10/23 07:43:21;;;;;;;4.67;2.83;;;;;;;15.55;65.32;101796.64;1925951;74;21063;-63
2022/10/23 07:45:52;;;;;;;8.10;4.15;;;;;;;15.86;64.57;101787.38;1895619;73;21069;-62
2022/10/23 07:48:23;;;;;;;4.28;1.42;;;;;;;16.68;62.46;101792.43;1968737;73;21034;-57
2022/10/23 07:51:10;;;;;;;2.02;1.82;;;;;;;16.84;61.69;101797.03;1942990;73;21139;-57
2022/10/23 07:53:42;;;;;;;2.22;0.80;;;;;;;16.72;61.24;101793.15;1939960;74;21084;-57
2022/10/23 07:56:25;;;;;;;2.62;2.02;;;;;;;16.51;61.26;101785.73;1942451;74;21218;-57
2022/10/23 07:58:55;;;;;;;1.92;1.32;;;;;;;16.31;61.15;101782.69;1861492;72;21169;-57
2022/10/23 08:01:30;;;;;;;4.25;1.30;;;;;;;16.14;61.01;101782.99;1941346;74;21702;-58
2022/10/23 08:04:00;;;;;;;1.60;1.17;;;;;;;16.11;61.14;101780.47;1944493;74;21121;-58
2022/10/23 08:06:29;;;;;;;3.10;1.92;;;;;;;16.09;61.03;101783.66;1944892;74;21453;-59
2022/10/23 08:08:59;;;;;;;1.82;0.80;;;;;;;16.11;61.05;101779.14;1945080;73;21101;-59
2022/10/23 08:11:34;;;;;;;1.25;0.80;;;;;;;16.11;60.39;101775.63;1930303;73;21011;-57
2022/10/23 08:13:59;;;;;;;1.27;0.70;;;;;;;16.09;60.34;101781.48;1926954;73;21033;-57
2022/10/23 08:16:28;;;;;;;2.12;0.33;;;;;;;16.08;59.99;101779.27;1921604;73;21078;-59
2022/10/23 08:19:15;;;;;;;3.02;1.00;;;;;;;16.07;60.21;101782.87;1910942;75;21451;-58
2022/10/23 08:21:45;;;;;;;3.08;0.72;;;;;;;16.07;59.92;101772.25;1911355;73;21031;-49
2022/10/23 08:24:14;;;;;;;3.25;1.42;;;;;;;16.11;59.95;101775.63;1929813;74;21087;-47
2022/10/23 08:26:44;;;;;;;1.02;0.50;;;;;;;16.15;59.93;101782.52;1910913;75;21150;-49
2022/10/23 08:29:13;;;;;;;1.12;0.40;;;;;;;16.20;59.59;101773.40;1939446;73;21043;-47
2022/10/23 08:31:42;;;;;;;2.55;0.20;;;;;;;16.24;59.05;101775.92;1954774;72;21024;-47
2022/10/23 08:34:22;;;;;;;1.10;0.60;;;;;;;16.26;58.85;101777.56;1952075;73;21173;-47
2022/10/23 08:36:51;;;;;;;4.22;1.20;;;;;;;16.36;58.57;101774.03;1935403;73;21095;-49
2022/10/23 08:39:20;;;;;;;6.17;2.45;;;;;;;16.45;58.78;101778.92;1920658;73;21025;-46
2022/10/23 08:41:52;;;;;;;2.52;1.37;;;;;;;16.53;58.66;101769.25;1912611;75;21050;-46
2022/10/23 08:44:44;;;;;;;0.82;0.70;;;;;;;16.64;58.68;101768.73;1920542;74;21051;-48
2022/10/23 08:47:17;;;;;;;4.12;1.52;;;;;;;16.68;58.12;101772.48;1920080;75;21607;-62
2022/10/23 08:50:38;;;;;;;3.05;1.12;;;;;;;16.77;58.02;101781.83;1920539;75;21105;-60
2022/10/23 08:53:31;;;;;;;0.70;0.50;;;;;;;16.87;58.02;101768.97;1919447;75;21446;-59
2022/10/23 08:56:06;;;;;;;1.45;0.70;;;;;;;16.94;56.49;101769.91;1920666;75;21117;-58
2022/10/23 08:58:49;;;;;;;;;;;;;;;17.04;56.78;101756.15;1923019;74;21583;-59
2022/10/23 09:01:20;;;;;;;2.00;0.75;;;;;;;17.14;56.67;101758.75;1931254;73;20143;-57
2022/10/23 09:03:49;;;;;;;3.95;1.42;;;;;;;17.28;56.64;101752.27;1953927;73;21035;-62
2022/10/23 09:06:23;;;;;;;2.02;0.78;;;;;;;17.47;56.49;101755.31;1954791;73;21007;-61
2022/10/23 09:09:01;;;;;;;1.35;0.70;;;;;;;17.62;56.08;101745.18;1890015;73;21557;-62
2022/10/23 09:11:48;;;;;;;1.30;0.70;;;;;;;17.73;55.91;101761.45;1925954;74;21047;-61
2022/10/23 09:14:31;;;;;;;4.95;0.50;;;;;;;17.77;55.26;101753.30;1942298;74;21000;-61
2022/10/23 09:17:04;;;;;;;;;;;;;;;17.66;54.46;101746.73;1948642;72;21101;-62
2022/10/23 09:19:32;;;;;;;0.93;0.80;;;;;;;17.56;54.76;101746.84;1953443;73;20116;-59
2022/10/23 09:22:01;;;;;;;1.82;0.90;;;;;;;17.49;55.02;101752.09;1954856;73;21031;-57
2022/10/23 09:24:32;;;;;;;1.95;0.60;;;;;;;17.38;55.02;101749.13;1954866;73;21000;-59
2022/10/23 09:27:01;;;;;;;3.45;1.55;;;;;;;17.28;55.40;101741.63;1954830;73;21572;-58
2022/10/23 09:29:34;;;;;;;1.80;0.40;;;;;;;17.23;55.61;101734.33;1954806;73;21031;-58
2022/10/23 09:32:06;;;;;;;2.20;0.82;;;;;;;17.18;55.56;101735.03;1954686;72;21102;-57
2022/10/23 09:34:35;;;;;;;0.35;0.30;;;;;;;17.18;55.73;101726.57;1954738;73;21007;-58
2022/10/23 09:37:19;;;;;;;0.47;0.45;;;;;;;17.15;55.82;101725.86;1954704;73;21102;-59
2022/10/23 09:39:47;;;;;;;;;;;;;;;17.08;56.12;101720.45;1956764;73;21066;-59
2022/10/23 09:42:24;;;;;;;0.50;0.42;;;;;;;17.01;56.35;101705.30;1954614;73;20104;-60
2022/10/23 09:44:55;;;;;;;1.32;0.50;;;;;;;16.95;56.68;101715.78;1954812;73;21062;-59
2022/10/23 09:47:26;;;;;;;0.68;0.40;;;;;;;16.97;56.92;101700.59;1954787;73;21055;-58
2022/10/23 09:49:56;;;;;;;0.78;0.57;;;;;;;17.06;56.78;101715.69;1954909;73;21104;-61
2022/10/23 09:52:37;;;;;;;0.95;0.50;;;;;;;17.17;55.94;101706.69;1954724;73;21526;-58
2022/10/23 09:55:21;;;;;;;0.60;0.42;;;;;;;17.27;55.63;101702.62;1954843;73;21109;-57
2022/10/23 09:57:52;;;;;;;3.25;0.60;;;;;;;17.38;55.57;101710.53;1916943;73;21121;-60
2022/10/23 10:00:24;;;;;;;1.75;0.70;;;;;;;17.43;54.53;101707.13;1954737;73;21038;-60
2022/10/23 10:03:04;;;;;;;2.72;1.12;;;;;;;17.39;54.10;101701.59;1950519;73;21008;-58
2022/10/23 10:05:36;;;;;;;2.30;0.57;;;;;;;17.39;54.21;101697.59;1942957;74;21587;-57
2022/10/23 10:08:21;;;;;;;1.50;0.70;;;;;;;17.39;53.79;101690.94;1932792;73;21095;-58
2022/10/23 10:10:53;;;;;;;1.95;0.75;;;;;;;17.36;54.04;101685.31;1939647;73;20999;-60
2022/10/23 10:13:37;;;;;;;0.82;0.40;;;;;;;17.35;54.17;101689.79;1924132;73;21023;-60
2022/10/23 10:16:30;;;;;;;0.40;0.40;;;;;;;17.34;54.27;101689.39;1917715;74;21497;-58
2022/10/23 10:19:07;;;;;;;0.87;0.47;;;;;;;17.31;54.09;101688.20;1945061;74;21101;-58
2022/10/23 10:21:45;;;;;;;0.30;0.30;;;;;;;17.20;53.88;101682.59;1944855;74;21691;-57
2022/10/23 10:24:16;;;;;;;0.20;0.20;;;;;;;17.16;54.22;101670.39;1944891;74;21100;-57
2022/10/23 10:26:54;;;;;;;0.40;0.40;;;;;;;17.08;54.16;101671.23;1936265;74;21512;-57
2022/10/23 10:29:43;;;;;;;1.75;0.40;;;;;;;17.01;54.33;101672.52;1911316;75;21084;-58
2022/10/23 10:32:23;;;;;;;0.65;0.30;;;;;;;16.98;54.53;101667.72;1910841;75;21494;-58
2022/10/23 10:34:55;;;;;;;0.23;0.23;;;;;;;16.94;54.61;101664.83;1911080;75;21559;-58
2022/10/23 10:37:33;;;;;;;1.20;0.30;;;;;;;16.93;54.72;101667.12;1904465;74;21083;-55
2022/10/23 10:40:04;;;;;;;0.60;0.23;;;;;;;16.91;54.76;101654.81;1929349;73;21142;-60
2022/10/23 10:42:54;;;;;;;2.20;0.30;;;;;;;16.91;55.10;101658.36;1925896;73;21105;-57
2022/10/23 10:45:33;;;;;;;0.33;0.30;;;;;;;16.92;55.23;101663.20;1924912;73;21032;-59
2022/10/23 10:48:23;;;;;;;1.27;0.50;;;;;;;16.91;55.46;101653.03;1930297;73;21054;-57
2022/10/23 10:51:14;;;;;;;1.22;0.40;;;;;;;16.91;55.63;101654.36;1927905;73;21165;-58
2022/10/23 10:54:03;;;;;;;0.90;0.50;;;;;;;16.86;55.62;101649.75;1931413;73;21127;-58
2022/10/23 10:56:35;;;;;;;0.93;0.40;;;;;;;16.82;55.63;101642.84;1915730;74;21024;-59
2022/10/23 10:59:13;;;;;;;0.65;0.35;;;;;;;16.77;55.33;101631.08;1911090;74;21114;-58
2022/10/23 11:01:56;;;;;;;1.32;0.40;;;;;;;16.73;55.51;101635.33;1910800;74;21059;-58
2022/10/23 11:04:40;;;;;;;0.75;0.30;;;;;;;16.72;55.84;101623.80;1893309;74;21051;-57
2022/10/23 11:07:11;;;;;;;0.55;0.50;;;;;;;16.75;56.11;101609.50;1902821;75;21035;-56
2022/10/23 11:09:41;;;;;;;1.22;0.30;;;;;;;16.77;56.20;101609.81;1911571;73;21085;-53
2022/10/23 11:12:16;;;;;;;3.02;0.42;;;;;;;16.77;56.00;101602.30;1939594;74;21062;-57
2022/10/23 11:14:46;;;;;;;1.27;0.35;;;;;;;16.78;55.90;101604.02;1944880;74;21078;-55
2022/10/23 11:17:23;;;;;;;0.55;0.37;;;;;;;16.80;55.56;101603.45;1944725;74;21102;-58
2022/10/23 11:20:10;;;;;;;2.05;0.42;;;;;;;16.81;55.47;101592.38;1937616;73;21040;-56
2022/10/23 11:22:51;;;;;;;1.10;0.55;;;;;;;16.80;55.48;101586.17;1944353;73;21493;-56
2022/10/23 11:25:46;;;;;;;0.42;0.30;;;;;;;16.80;55.65;101580.85;1943058;72;21097;-57
2022/10/23 11:28:29;;;;;;;1.52;0.68;;;;;;;16.79;55.80;101577.81;1943147;74;21168;-56
2022/10/23 11:31:01;;;;;;;1.45;0.30;;;;;;;16.79;55.99;101561.86;1942142;74;21172;-56
2022/10/23 11:33:45;;;;;;;0.40;0.40;;;;;;;16.78;56.09;101569.44;1942870;74;21061;-56
2022/10/23 11:36:16;;;;;;;;;;;;;;;16.76;55.79;101560.20;1925213;74;21043;-50
2022/10/23 11:38:52;;;;;;;1.05;0.50;;;;;;;16.75;55.79;101565.15;1931430;73;20398;-56
2022/10/23 11:41:28;;;;;;;1.00;0.40;;;;;;;16.74;55.65;101565.22;1944898;73;21556;-55
2022/10/23 11:44:04;;;;;;;0.30;0.30;;;;;;;16.73;55.41;101567.51;1944722;74;21102;-52
2022/10/23 11:46:36;;;;;;;0.82;0.62;;;;;;;16.74;54.62;101557.25;1944057;74;21027;-52
2022/10/23 11:49:07;;;;;;;0.75;0.60;;;;;;;16.70;54.78;101563.67;1927054;74;21003;-50
2022/10/23 11:51:38;;;;;;;1.02;0.55;;;;;;;16.72;55.03;101556.47;1942687;74;21568;-53
2022/10/23 11:54:13;;;;;;;0.95;0.60;;;;;;;16.70;55.13;101563.67;1944330;74;21430;-51
2022/10/23 11:57:16;;;;;;;2.22;0.40;;;;;;;16.67;55.25;101564.67;1944777;74;21089;-48
2022/10/23 11:59:51;;;;;;;1.82;0.85;;;;;;;16.66;55.46;101563.45;1926779;74;21085;-51
2022/10/23 12:02:25;;;;;;;0.85;0.60;;;;;;;16.59;55.64;101554.43;1913669;74;21112;-53
2022/10/23 12:04:55;;;;;;;1.27;0.60;;;;;;;16.56;56.02;101536.00;1948233;73;21082;-54
2022/10/23 12:07:26;;;;;;;2.87;0.60;;;;;;;16.54;56.52;101536.55;1948408;74;21139;-56
2022/10/23 12:10:01;;;;;;;3.17;0.60;;;;;;;16.51;56.92;101530.05;1942302;73;21078;-51
2022/10/23 12:12:39;;;;;;;1.87;0.40;;;;;;;16.51;57.08;101522.56;1944667;74;21133;-57
2022/10/23 12:15:14;;;;;;;0.70;0.60;;;;;;;16.50;57.30;101524.33;1942784;74;21063;-57